CST,Max TemperatureF,Mean TemperatureF,Min TemperatureF,Max Dew PointF,MeanDew PointF,Min DewpointF,Max Humidity, Mean Humidity, Min Humidity, Max Sea Level PressureIn, Mean Sea Level PressureIn, Min Sea Level PressureIn, Max VisibilityMiles, Mean VisibilityMiles, Min VisibilityMiles, Max Wind SpeedMPH, Mean Wind SpeedMPH, Max Gust SpeedMPH,PrecipitationIn, CloudCover, Events, WindDirDegrees
2012-1-1,72,62,52,72,61,38,100,67,33,30.50,30.23,30.09,10,4,0,28,9,33,0.26,6,Fog,43
2012-1-2,66,54,42,41,36,31,76,52,28,30.67,30.59,30.50,10,10,10,23,11,29,0.00,0,,360
2012-1-3,71,53,35,46,39,28,92,63,33,30.60,30.48,30.33,10,10,10,17,6,21,0.00,0,,187
2012-1-4,80,63,45,59,52,44,100,71,42,30.30,30.22,30.15,10,8,0,28,11,35,0.01,0,Fog,152
2012-1-5,78,65,51,57,55,53,100,73,46,30.29,30.20,30.13,10,9,4,14,5,20,0.00,3,,205
2012-1-6,77,67,57,61,59,55,93,77,60,30.12,30.03,29.96,10,10,10,24,10,31,0.00,4,,169
2012-1-7,83,68,52,63,59,54,100,72,43,30.03,29.97,29.93,10,6,0,17,9,23,0.00,0,Fog,171
2012-1-8,83,71,59,68,64,59,100,77,54,29.99,29.93,29.84,10,6,0,31,15,38,0.00,3,Fog,150
2012-1-9,82,68,54,70,63,46,93,72,50,30.08,29.90,29.84,10,9,8,25,15,30,0.00,4,,202
2012-1-10,72,58,44,45,37,33,77,51,25,30.14,30.04,29.96,10,10,10,28,14,35,0.00,0,,300
2012-1-11,81,62,42,59,45,35,84,55,25,29.97,29.88,29.78,10,9,2,20,10,24,0.00,0,,200
2012-1-12,62,51,40,59,38,17,100,60,20,30.30,30.09,29.82,10,10,7,31,14,39,0.00,2,,2
2012-1-13,61,49,37,42,30,15,61,44,26,30.37,30.30,30.25,10,10,10,17,10,22,0.00,6,,11
2012-1-14,69,58,46,51,46,40,86,67,48,30.43,30.36,30.31,10,10,10,15,7,18,0.00,6,,47
2012-1-15,78,69,60,63,59,53,87,72,56,30.33,30.26,30.18,10,10,10,25,11,31,0.00,6,,130
2012-1-16,85,76,66,69,66,63,93,74,55,30.17,30.09,30.00,10,10,10,32,20,37,0.00,4,,168
2012-1-17,86,77,67,68,67,65,90,73,55,30.10,30.02,29.97,10,9,6,32,15,38,0.00,3,,180
2012-1-18,71,65,58,67,52,46,90,74,58,30.28,30.17,30.08,10,10,7,26,10,32,T,8,Rain,39
2012-1-19,77,69,61,68,62,55,90,79,68,30.07,29.98,29.90,10,10,6,24,10,29,0.00,6,,172
2012-1-20,85,78,70,68,67,66,90,73,55,29.89,29.86,29.79,10,10,8,35,21,41,0.00,4,,177
2012-1-21,85,76,67,70,67,63,93,72,51,29.95,29.89,29.84,10,9,4,22,10,28,0.00,5,,177
2012-1-22,84,75,66,70,68,65,100,79,58,29.87,29.82,29.76,10,8,3,30,15,38,0.00,4,,173
2012-1-23,80,74,67,70,68,64,100,87,74,30.02,29.95,29.87,10,5,3,21,9,24,T,7,,69
2012-1-24,85,78,70,72,70,66,100,79,58,29.93,29.84,29.71,10,7,1,38,18,45,0.00,7,,136
2012-1-25,88,76,63,70,60,41,87,54,21,29.99,29.79,29.68,10,10,7,35,19,43,0.00,3,,252
2012-1-26,80,65,50,51,43,34,80,51,21,30.12,30.05,29.99,10,10,10,24,10,29,0.00,0,,316
2012-1-27,82,64,45,55,46,40,93,58,23,30.12,30.04,29.92,10,10,8,22,10,28,0.00,0,,160
2012-1-28,76,65,53,60,55,50,93,71,49,30.35,30.21,30.02,10,10,10,28,13,33,0.00,2,,53
2012-1-29,74,61,48,54,49,35,80,65,49,30.43,30.34,30.29,10,10,10,17,10,24,0.00,3,,22
2012-1-30,72,65,58,64,60,53,93,81,68,30.28,30.19,30.11,10,8,2,14,5,20,0.17,6,Rain,168
2012-1-31,83,73,63,68,64,60,93,76,58,30.12,30.07,29.99,10,6,2,15,6,18,0.04,7,Rain,129